createdAt,value
2018-11-21T00:02:22.633Z,1.60
2018-11-21T00:04:50.055Z,1.70
2018-11-21T00:07:17.463Z,1.60
2018-11-21T00:09:44.898Z,1.60
2018-11-21T00:12:12.353Z,1.60
2018-11-21T00:14:39.807Z,1.60
2018-11-21T00:17:08.295Z,1.60
2018-11-21T00:19:35.745Z,1.60
2018-11-21T00:22:03.217Z,1.60
2018-11-21T00:24:30.632Z,1.60
2018-11-21T00:26:58.091Z,1.70
2018-11-21T00:29:25.474Z,1.70
2018-11-21T00:31:52.890Z,1.60
2018-11-21T00:34:20.483Z,1.60
2018-11-21T00:36:47.913Z,1.60
2018-11-21T00:39:15.335Z,1.60
2018-11-21T00:41:42.788Z,1.50
2018-11-21T00:44:10.237Z,1.60
2018-11-21T00:46:37.652Z,1.60
2018-11-21T00:49:05.305Z,1.60
2018-11-21T00:51:32.753Z,1.70
2018-11-21T00:54:00.341Z,1.70
2018-11-21T00:56:27.601Z,1.60
2018-11-21T00:58:55.060Z,1.60
2018-11-21T01:01:22.764Z,1.60
2018-11-21T01:03:50.385Z,1.60
2018-11-21T01:06:17.798Z,1.60
2018-11-21T01:08:45.256Z,1.60
2018-11-21T01:11:12.664Z,1.60
2018-11-21T01:13:40.074Z,1.60
2018-11-21T01:16:08.414Z,1.60
2018-11-21T01:18:35.830Z,1.60
2018-11-21T01:21:03.465Z,1.70
2018-11-21T01:26:19.668Z,1.70
2018-11-21T01:28:48.042Z,1.70
2018-11-21T01:31:15.537Z,1.70
2018-11-21T01:33:42.981Z,1.70
2018-11-21T01:36:10.441Z,1.70
2018-11-21T01:38:37.896Z,1.70
2018-11-21T01:41:05.370Z,1.80
2018-11-21T01:43:32.838Z,1.80
2018-11-21T01:46:00.295Z,1.70
2018-11-21T01:48:27.734Z,1.70
2018-11-21T01:50:55.144Z,1.70
2018-11-21T01:53:22.656Z,1.70
2018-11-21T01:55:50.091Z,1.80
2018-11-21T01:58:18.634Z,1.80
2018-11-21T02:00:46.011Z,1.70
2018-11-21T02:03:13.537Z,1.70
2018-11-21T02:05:40.944Z,1.80
2018-11-21T02:08:08.346Z,1.60
2018-11-21T02:10:35.717Z,1.80
2018-11-21T02:13:03.228Z,1.80
2018-11-21T02:15:30.587Z,1.80
2018-11-21T02:17:58.148Z,1.80
2018-11-21T02:20:25.564Z,1.80
2018-11-21T02:22:53.065Z,1.80
2018-11-21T02:25:20.486Z,1.80
2018-11-21T02:27:47.963Z,1.80
2018-11-21T02:30:15.288Z,1.80
2018-11-21T02:32:42.647Z,1.80
2018-11-21T02:35:10.073Z,1.80
2018-11-21T02:37:37.436Z,1.80
2018-11-21T02:40:06.526Z,1.80
2018-11-21T02:42:33.922Z,1.70
2018-11-21T02:45:01.478Z,1.80
2018-11-21T02:47:28.820Z,1.80
2018-11-21T02:49:56.195Z,1.70
2018-11-21T02:52:23.605Z,1.80
2018-11-21T02:54:51.081Z,1.80
2018-11-21T02:57:24.060Z,1.80
2018-11-21T02:59:57.141Z,1.80
2018-11-21T03:02:24.796Z,1.70
2018-11-21T03:04:52.216Z,1.70
2018-11-21T03:07:19.529Z,1.80
2018-11-21T03:09:46.937Z,1.80
2018-11-21T03:12:14.320Z,1.80
2018-11-21T03:14:41.693Z,1.80
2018-11-21T03:17:09.441Z,1.70
2018-11-21T03:19:36.784Z,1.70
2018-11-21T03:22:04.226Z,1.80
2018-11-21T03:24:31.614Z,1.80
2018-11-21T03:26:58.963Z,1.80
2018-11-21T03:29:26.552Z,1.80
2018-11-21T03:31:53.915Z,1.70
2018-11-21T03:34:21.609Z,1.80
2018-11-21T03:36:50.459Z,1.80
2018-11-21T03:39:19.225Z,1.80
2018-11-21T03:41:46.810Z,1.80
2018-11-21T03:44:14.159Z,1.80
2018-11-21T03:46:42.097Z,1.80
2018-11-21T03:49:09.495Z,1.90
2018-11-21T03:51:37.491Z,1.90
2018-11-21T03:54:05.298Z,1.90
2018-11-21T03:56:32.860Z,2.00
2018-11-21T03:59:00.265Z,2.00
2018-11-21T04:01:27.821Z,1.90
2018-11-21T04:03:55.206Z,2.00
2018-11-21T04:06:23.414Z,2.00
2018-11-21T04:08:50.205Z,2.00
2018-11-21T04:11:17.597Z,2.00
2018-11-21T04:13:45.001Z,2.00
2018-11-21T04:16:12.488Z,2.00
2018-11-21T04:18:40.031Z,2.00
2018-11-21T04:21:07.944Z,2.10
2018-11-21T04:23:35.486Z,2.00
2018-11-21T04:26:02.873Z,2.00
2018-11-21T04:28:30.316Z,2.00
2018-11-21T04:30:57.712Z,2.10
2018-11-21T04:33:25.131Z,2.00
2018-11-21T04:35:52.550Z,2.00
2018-11-21T04:38:19.908Z,2.00
2018-11-21T04:40:47.593Z,2.00
2018-11-21T04:43:16.007Z,2.00
2018-11-21T04:45:43.402Z,2.00
2018-11-21T04:48:10.954Z,2.00
2018-11-21T04:50:38.592Z,2.00
2018-11-21T04:53:06.015Z,2.00
2018-11-21T04:55:33.395Z,2.00
2018-11-21T04:58:00.845Z,2.00
2018-11-21T05:00:28.200Z,2.00
2018-11-21T05:02:55.647Z,2.00
2018-11-21T05:05:23.470Z,2.00
2018-11-21T05:07:51.273Z,2.10
2018-11-21T05:10:19.300Z,2.00
2018-11-21T05:12:46.916Z,2.20
2018-11-21T05:15:14.346Z,2.10
2018-11-21T05:17:41.782Z,2.10
2018-11-21T05:20:09.206Z,2.10
2018-11-21T05:22:36.793Z,2.10
2018-11-21T05:25:05.016Z,2.10
2018-11-21T05:27:32.492Z,2.10
2018-11-21T05:30:00.192Z,2.10
2018-11-21T05:32:27.614Z,2.10
2018-11-21T05:34:55.091Z,2.00
2018-11-21T05:37:22.435Z,2.00
2018-11-21T05:39:49.853Z,2.10
2018-11-21T05:42:17.289Z,2.10
2018-11-21T05:44:44.678Z,2.10
2018-11-21T05:47:13.260Z,2.10
2018-11-21T05:49:40.694Z,2.10
2018-11-21T05:52:08.153Z,2.10
2018-11-21T05:54:35.583Z,2.10
2018-11-21T05:57:02.973Z,2.10
2018-11-21T05:59:30.414Z,2.10
2018-11-21T06:01:57.805Z,2.10
2018-11-21T06:04:25.746Z,2.10
2018-11-21T06:06:53.193Z,2.10
2018-11-21T06:09:20.613Z,2.10
2018-11-21T06:11:47.963Z,2.00
2018-11-21T06:14:15.357Z,2.10
2018-11-21T06:16:42.891Z,2.10
2018-11-21T06:19:10.308Z,2.10
2018-11-21T06:21:37.676Z,2.10
2018-11-21T06:24:05.086Z,2.10
2018-11-21T06:26:32.537Z,2.10
2018-11-21T06:28:59.902Z,2.10
2018-11-21T06:31:27.390Z,2.10
2018-11-21T06:33:55.204Z,2.00
2018-11-21T06:36:22.581Z,2.10
2018-11-21T06:38:49.949Z,2.10
2018-11-21T06:41:17.340Z,2.10
2018-11-21T06:43:44.679Z,2.10
2018-11-21T06:46:12.074Z,2.10
2018-11-21T06:48:39.597Z,2.10
2018-11-21T06:51:06.979Z,2.10
2018-11-21T06:53:34.325Z,2.20
2018-11-21T06:56:01.677Z,2.30
2018-11-21T06:58:28.995Z,2.20
2018-11-21T07:00:56.372Z,2.20
2018-11-21T07:03:24.136Z,2.30
2018-11-21T07:05:51.508Z,2.40
2018-11-21T07:08:18.907Z,2.30
2018-11-21T07:10:46.279Z,2.40
2018-11-21T07:13:13.668Z,2.40
2018-11-21T07:15:41.079Z,2.30
2018-11-21T07:18:08.539Z,2.40
2018-11-21T07:20:35.968Z,2.30
2018-11-21T07:23:03.728Z,2.30
2018-11-21T07:25:31.138Z,2.30
2018-11-21T07:27:58.467Z,2.30
2018-11-21T07:30:25.872Z,2.30
2018-11-21T07:32:53.273Z,2.30
2018-11-21T07:35:20.611Z,2.30
2018-11-21T07:37:47.955Z,2.40
2018-11-21T07:40:15.518Z,2.40
2018-11-21T07:42:42.879Z,2.40
2018-11-21T07:45:12.130Z,2.40
2018-11-21T07:47:40.355Z,2.30
2018-11-21T07:50:11.178Z,2.40
2018-11-21T07:52:38.662Z,2.40
2018-11-21T07:55:06.679Z,2.40
2018-11-21T07:57:35.865Z,2.40
2018-11-21T08:01:16.939Z,2.40
2018-11-21T08:03:46.454Z,2.40
2018-11-21T08:06:25.890Z,2.50
2018-11-21T08:09:07.466Z,2.40
2018-11-21T08:11:55.258Z,2.50
2018-11-21T08:14:40.869Z,2.40
2018-11-21T08:17:26.526Z,2.40
2018-11-21T08:20:16.488Z,2.50
2018-11-21T08:23:12.161Z,2.50
2018-11-21T08:25:57.642Z,2.50
2018-11-21T08:28:28.292Z,2.50
2018-11-21T08:30:55.690Z,2.50
2018-11-21T08:33:23.357Z,2.50
2018-11-21T08:35:50.692Z,2.50
2018-11-21T08:38:18.065Z,2.60
2018-11-21T08:40:45.498Z,2.60
2018-11-21T08:43:12.855Z,2.60
2018-11-21T08:45:40.258Z,2.60
2018-11-21T08:48:07.895Z,2.70
2018-11-21T08:50:35.262Z,2.60
2018-11-21T08:53:03.006Z,2.60
2018-11-21T08:55:30.725Z,2.70
2018-11-21T08:57:58.083Z,2.70
2018-11-21T09:00:25.446Z,2.70
2018-11-21T09:02:53.245Z,2.60
2018-11-21T09:05:20.855Z,2.80
2018-11-21T09:07:48.209Z,2.80
2018-11-21T09:10:15.615Z,2.80
2018-11-21T09:12:43.080Z,2.90
2018-11-21T09:15:12.836Z,2.90
2018-11-21T09:17:40.545Z,2.90
2018-11-21T09:20:09.220Z,3.00
2018-11-21T09:22:36.638Z,3.00
2018-11-21T09:25:05.674Z,2.90
2018-11-21T09:27:33.646Z,2.90
2018-11-21T09:30:01.215Z,2.90
2018-11-21T09:32:28.661Z,2.80
2018-11-21T09:34:56.171Z,2.80
2018-11-21T09:37:23.606Z,2.80
2018-11-21T09:39:51.198Z,2.80
2018-11-21T09:42:18.594Z,2.80
2018-11-21T09:44:45.961Z,2.80
2018-11-21T09:47:13.353Z,2.80
2018-11-21T09:49:40.774Z,2.80
2018-11-21T09:52:08.846Z,2.80
2018-11-21T09:54:36.229Z,2.90
2018-11-21T09:57:03.888Z,2.90
2018-11-21T09:59:31.206Z,2.90
2018-11-21T10:02:53.542Z,3.00
2018-11-21T10:05:20.871Z,2.90
2018-11-21T10:08:48.463Z,2.90
2018-11-21T10:11:16.053Z,2.90
2018-11-21T10:13:43.416Z,2.90
2018-11-21T10:16:10.915Z,2.90
2018-11-21T10:18:39.566Z,3.00
2018-11-21T10:21:11.776Z,3.00
2018-11-21T10:23:39.200Z,3.10
2018-11-21T10:26:06.961Z,3.10
2018-11-21T10:28:34.399Z,3.10
2018-11-21T10:31:01.712Z,3.20
2018-11-21T10:33:29.263Z,3.20
2018-11-21T10:35:56.754Z,3.20
2018-11-21T10:38:24.169Z,3.20
2018-11-21T10:40:51.552Z,3.20
2018-11-21T10:43:18.890Z,3.20
2018-11-21T10:45:46.232Z,3.20
2018-11-21T10:48:13.610Z,3.20
2018-11-21T10:50:40.988Z,3.20
2018-11-21T10:53:08.320Z,3.30
2018-11-21T10:55:36.443Z,3.30
2018-11-21T10:58:04.169Z,3.30
2018-11-21T11:00:49.773Z,3.30
2018-11-21T11:03:25.316Z,3.20
2018-11-21T11:06:24.717Z,3.20
2018-11-21T11:09:11.790Z,3.20
2018-11-21T11:11:52.556Z,3.30
2018-11-21T11:14:51.725Z,3.20
2018-11-21T11:17:47.703Z,3.20
2018-11-21T11:20:33.113Z,3.20
2018-11-21T11:23:32.156Z,3.20
2018-11-21T11:26:37.164Z,3.10
2018-11-21T11:29:16.498Z,3.10
2018-11-21T11:32:12.539Z,3.10
2018-11-21T11:34:59.675Z,3.10
2018-11-21T11:37:45.276Z,3.00
2018-11-21T11:40:30.963Z,3.00
2018-11-21T11:43:16.775Z,2.90
2018-11-21T11:46:02.334Z,2.90
2018-11-21T11:49:01.188Z,2.90
2018-11-21T11:51:57.064Z,2.90
2018-11-21T11:54:42.595Z,2.90
2018-11-21T11:57:28.194Z,2.90
2018-11-21T12:00:13.964Z,2.80
2018-11-21T12:02:59.579Z,2.80
2018-11-21T12:05:58.618Z,2.90
2018-11-21T12:08:43.899Z,2.90
2018-11-21T12:11:49.309Z,2.90
2018-11-21T12:14:44.605Z,2.80
2018-11-21T12:17:39.056Z,2.80
2018-11-21T12:20:39.037Z,2.80
2018-11-21T12:23:24.698Z,2.90
2018-11-21T12:26:14.178Z,2.80
2018-11-21T12:29:04.156Z,2.80
2018-11-21T12:31:54.107Z,2.80
2018-11-21T12:34:53.839Z,2.80
2018-11-21T12:37:34.104Z,2.90
2018-11-21T12:40:24.102Z,2.80
2018-11-21T12:43:14.494Z,2.80
2018-11-21T12:46:00.108Z,2.80
2018-11-21T12:48:49.991Z,2.80
2018-11-21T12:51:52.641Z,2.80
2018-11-21T12:54:41.819Z,2.80
2018-11-21T12:57:27.353Z,2.80
2018-11-21T13:00:13.850Z,2.70
2018-11-21T13:03:10.187Z,2.70
2018-11-21T13:05:55.556Z,2.70
2018-11-21T13:08:42.638Z,2.70
2018-11-21T13:11:44.517Z,2.70
2018-11-21T13:14:31.272Z,2.60
2018-11-21T13:17:16.791Z,2.50
2018-11-21T13:20:19.013Z,2.60
2018-11-21T13:23:08.924Z,2.60
2018-11-21T13:26:10.760Z,2.50
2018-11-21T13:28:56.079Z,2.60
2018-11-21T13:31:38.167Z,2.60
2018-11-21T13:34:24.037Z,2.60
2018-11-21T13:37:16.999Z,2.60
2018-11-21T13:39:57.781Z,2.60
2018-11-21T13:42:45.507Z,2.50
2018-11-21T13:45:31.258Z,2.50
2018-11-21T13:48:24.953Z,2.40
2018-11-21T13:51:04.225Z,2.70
2018-11-21T13:53:46.865Z,2.50
2018-11-21T13:56:14.662Z,2.40
2018-11-21T13:58:43.543Z,2.50
2018-11-21T14:01:11.229Z,2.50
2018-11-21T14:03:43.640Z,2.40
2018-11-21T14:06:11.172Z,2.40
2018-11-21T14:08:38.682Z,2.40
2018-11-21T14:11:06.222Z,2.50
2018-11-21T14:13:33.615Z,2.50
2018-11-21T14:16:01.346Z,2.50
2018-11-21T14:18:28.749Z,2.40
2018-11-21T14:20:56.152Z,2.50
2018-11-21T14:23:23.698Z,2.40
2018-11-21T14:25:51.098Z,2.40
2018-11-21T14:28:18.757Z,2.40
2018-11-21T14:30:46.254Z,2.40
2018-11-21T14:33:13.625Z,2.40
2018-11-21T14:35:41.019Z,2.40
2018-11-21T14:38:09.459Z,2.30
2018-11-21T14:40:36.883Z,2.40
2018-11-21T14:43:05.801Z,2.40
2018-11-21T14:45:34.914Z,2.40
2018-11-21T14:48:03.661Z,2.40
2018-11-21T14:50:39.044Z,2.40
2018-11-21T14:53:10.014Z,2.40
2018-11-21T14:55:30.074Z,2.40
2018-11-21T14:57:57.436Z,2.40
2018-11-21T15:00:24.974Z,2.40
2018-11-21T15:02:52.407Z,2.30
2018-11-21T15:05:19.795Z,2.30
2018-11-21T15:07:47.536Z,2.40
2018-11-21T15:10:14.969Z,2.30
2018-11-21T15:12:42.310Z,2.40
2018-11-21T15:15:13.630Z,2.30
2018-11-21T15:17:41.228Z,2.40
2018-11-21T15:20:11.369Z,2.30
2018-11-21T15:22:39.090Z,2.40
2018-11-21T15:25:09.369Z,2.30
2018-11-21T15:27:36.972Z,2.30
2018-11-21T15:30:11.525Z,2.40
2018-11-21T15:32:39.141Z,2.30
2018-11-21T15:35:06.624Z,2.30
2018-11-21T15:37:34.016Z,2.30
2018-11-21T15:40:01.426Z,2.30
2018-11-21T15:42:28.899Z,2.30
2018-11-21T15:44:56.260Z,2.30
2018-11-21T15:47:23.654Z,2.30
2018-11-21T15:49:51.063Z,2.30
2018-11-21T15:52:18.408Z,2.30
2018-11-21T15:54:46.578Z,2.30
2018-11-21T15:57:15.890Z,2.30
